Aviation Discussion

000 FXUS63 KDTX 302235 AFDDTX AREA FORECAST DISCUSSION NATIONAL WEATHER SERVICE DETROIT/PONTIAC MI 635 PM EDT SUN AUG 30 2015 .AVIATION... SCATTERED SHOWERS, ISOLATED THUNDERSTORMS, AND WHAT REMAINS OF DIURNAL CU WILL DIMINISH OVER THE NEXT COUPLE OF HOURS AS THE BOUNDARY LAYER STABILIZES. DESPITE A HEALTHY COVERAGE OF MOSTLY TRANSPARENT CIRRUS, RADIATING CONDITIONS SHOULD BE SUFFICIENTLY FAVORABLE FOR IFR/LIFR TO DEVELOP LATE TONIGHT AS HIGH PRESSURE SETTLES OVER THE AREA. //DTW THRESHOLD PROBABILITIES... * LOW FOR VSBY AOB 1/2 MILE 09-12Z.

KDTW 302214Z 3022/3124 20007KT P6SM SCT030 BKN060
TEMPO 3022/3023 30011KT 5SM SHRA BKN050
FM310200 23005KT P6SM SCT060
FM310800 VRB03KT 3SM BR SKC
FM311000 00000KT 1SM BR VV007
FM311400 VRB03KT 3SM BR SCT015
FM311600 25005KT P6SM FEW045=

KDET 301730Z 3018/3118 23007KT P6SM BKN045
TEMPO 3018/3020 BKN030 OVC045
FM310200 23005KT P6SM SKC
FM311000 VRB03KT 3SM BR SKC
FM311600 25005KT P6SM FEW045=

Cleveland Center Weather Service Unit (CWSU)
Mission:
Our main responsibility is to provide up to the minute weather information to FAA Supervisors and the ZOB Traffic Management Unit (TMU). Some of the products issued by the CWSU are the Center Weather Advisories (CWA) and the Meteorological Impact Statement (MIS). The CWA is an aviation weather warning for thunderstorms, severe icing or turbulence, and low IFR ceilings and visibility. The MIS is a 2-12 hour forecast for weather conditions, which are expected to impact ARTCC operations.
 
Operations:
The Cleveland Center Weather Service Unit (ZOB CWSU) is located at the Federal Aviation Administration (FAA) Air Route Traffic Control Center (ARTCC) in Oberlin, OH. Four National Weather Service meteorologists staff the office. Our hours of operation are from 6:00 A.M. to 9:30 P.M. daily.

Web Site Owner:
NOAA National Weather Service
Cleveland ARTCC Attn:CWSU
326 East Lorain Street
Oberlin, OH 44074
Web Administrator:Webmaster
Page last modified: 23 Feb 2013
Disclaimer
Credits
Glossary
Privacy Policy
About Our Organization
Career Opportunities